Time;durP1;ratioP1;P1;durP2;ratioP2;P2;SDS_P1;SDS_P2;PMS_P1;PMS_P2;Temp;Humidity;BMP_temperature;BMP_pressure;BME280_temperature;BME280_humidity;BME280_pressure;Samples;Min_cycle;Max_cycle;Signal;HPM_P1;HPM_P2
2021/08/02 00:00:10;;;;;;;;;;;;;;;21.70;56.18;100227.09;5117971;28;771;-43
2021/08/02 00:02:36;;;;;;;;;;;;;;;21.90;57.58;100220.50;5118014;28;773;-43
2021/08/02 00:05:03;;;;;;;;;;;;;;;23.69;51.55;100225.75;5099699;28;1918;-43
2021/08/02 00:07:29;;;;;;;;;;;;;;;22.02;55.54;100225.59;5117749;28;775;-43
2021/08/02 00:09:54;;;;;;;;;;;;;;;22.76;56.38;100210.69;5099939;28;783;-43
2021/08/02 00:12:26;;;;;;;;;;;;;;;24.05;49.97;100214.50;5117070;28;942;-41
2021/08/02 00:14:52;;;;;;;;;;;;;;;21.75;55.95;100216.75;5117564;28;807;-43
2021/08/02 00:17:17;;;;;;;;;;;;;;;22.73;55.87;100217.25;5117744;28;832;-43
2021/08/02 00:19:42;;;;;;;;;;;;;;;24.06;49.98;100224.22;5117148;28;858;-42
2021/08/02 00:22:08;;;;;;;;;;;;;;;21.72;56.07;100225.09;5117718;28;858;-41
2021/08/02 00:24:33;;;;;;;;;;;;;;;22.81;55.34;100221.78;5116598;28;1909;-41
2021/08/02 00:26:58;;;;;;;;;;;;;;;24.08;49.45;100224.91;5117036;28;958;-41
2021/08/02 00:29:24;;;;;;;;;;;;;;;21.82;55.97;100214.28;5099875;28;779;-42
2021/08/02 00:31:50;;;;;;;;;;;;;;;21.28;56.71;100219.66;5116804;28;842;-42
2021/08/02 00:34:15;;;;;;;;;;;;;;;23.45;51.69;100222.09;5098539;28;910;-43
2021/08/02 00:36:41;;;;;;;;;;;;;;;22.01;54.84;100223.91;5117280;28;791;-42
2021/08/02 00:39:24;;;;;;;;;;;;;;;21.34;55.84;100220.84;5117148;28;806;-41
2021/08/02 00:42:01;;;;;;;;;;;;;;;23.26;51.88;100218.72;5116510;28;970;-42
2021/08/02 00:44:29;;;;;;;;;;;;;;;22.83;52.04;100205.50;5117026;28;1909;-38
2021/08/02 00:46:58;;;;;;;;;;;;;;;21.50;55.71;100209.41;5116652;28;847;-43
2021/08/02 00:49:25;;;;;;;;;;;;;;;22.95;52.98;100208.69;5117157;28;819;-43
2021/08/02 00:51:51;;;;;;;;;;;;;;;24.09;48.74;100205.06;5098976;28;791;-42
2021/08/02 00:54:17;;;;;;;;;;;;;;;21.54;55.01;100196.53;5105237;28;1489;-44
2021/08/02 00:56:42;;;;;;;;;;;;;;;22.22;56.06;100201.22;5083707;28;1073;-42
2021/08/02 00:59:07;;;;;;;;;;;;;;;23.75;49.40;100200.88;5098151;28;892;-43
2021/08/02 01:01:36;;;;;;;;;;;;;;;23.92;49.56;100200.81;5116951;28;736;-41
2021/08/02 01:04:01;;;;;;;;;;;;;;;21.76;54.53;100197.00;5116987;28;1918;-43
2021/08/02 01:06:30;;;;;;;;;;;;;;;22.77;53.79;100196.31;5116762;28;782;-44
2021/08/02 01:08:55;;;;;;;;;;;;;;;24.08;48.20;100191.81;5116854;28;806;-42
2021/08/02 01:11:21;;;;;;;;;;;;;;;21.71;54.23;100189.44;5116267;28;986;-43
2021/08/02 01:13:46;;;;;;;;;;;;;;;21.44;55.22;100185.94;5098338;28;900;-41
2021/08/02 01:16:11;;;;;;;;;;;;;;;23.41;50.08;100194.75;5116844;28;811;-42
2021/08/02 01:18:38;;;;;;;;;;;;;;;22.47;51.87;100201.28;5116528;28;827;-42
2021/08/02 01:21:07;;;;;;;;;;;;;;;21.38;54.00;100198.16;5116961;28;751;-42
2021/08/02 01:23:33;;;;;;;;;;;;;;;22.82;52.15;100198.47;5116853;28;1958;-41
2021/08/02 01:25:58;;;;;;;;;;;;;;;23.46;49.51;100194.22;5098402;28;954;-40
2021/08/02 01:28:23;;;;;;;;;;;;;;;21.34;54.87;100188.75;5116458;28;954;-41
2021/08/02 01:30:49;;;;;;;;;;;;;;;23.22;50.81;100194.06;5116782;28;766;-43
2021/08/02 01:33:18;;;;;;;;;;;;;;;24.24;48.57;100198.97;5116973;28;770;-42
2021/08/02 01:35:43;;;;;;;;;;;;;;;21.23;55.40;100195.22;5117432;28;993;-43
2021/08/02 01:38:09;;;;;;;;;;;;;;;22.46;55.43;100188.84;5120861;28;796;-41
2021/08/02 01:40:34;;;;;;;;;;;;;;;23.92;48.46;100196.25;5102829;28;760;-42
2021/08/02 01:43:02;;;;;;;;;;;;;;;21.35;55.12;100192.25;5120176;28;957;-42
2021/08/02 01:45:28;;;;;;;;;;;;;;;22.92;52.75;100203.69;5120623;28;2216;-42
2021/08/02 01:48:01;;;;;;;;;;;;;;;24.16;47.87;100201.66;5120250;28;1070;-42
2021/08/02 01:50:41;;;;;;;;;;;;;;;21.76;54.18;100199.66;5102337;28;844;-41
2021/08/02 01:53:33;;;;;;;;;;;;;;;22.92;52.32;100188.41;5119243;28;1147;-42
2021/08/02 01:56:17;;;;;;;;;;;;;;;24.19;50.79;100191.44;5095746;28;1379;-42
2021/08/02 01:59:02;;;;;;;;;;;;;;;21.71;54.52;100197.47;5100407;28;1475;-42
2021/08/02 02:01:27;;;;;;;;;;;;;;;22.35;55.34;100196.22;5120120;28;1190;-41
2021/08/02 02:03:52;;;;;;;;;;;;;;;23.90;48.51;100203.66;5101018;28;2061;-42
2021/08/02 02:06:17;;;;;;;;;;;;;;;23.85;49.18;100200.66;5101608;28;886;-41
2021/08/02 02:08:59;;;;;;;;;;;;;;;21.65;54.57;100200.81;5101353;28;1008;-42
2021/08/02 02:11:25;;;;;;;;;;;;;;;22.27;55.48;100205.06;5101452;28;864;-43
2021/08/02 02:13:51;;;;;;;;;;;;;;;23.95;48.64;100195.91;5120201;28;775;-42
2021/08/02 02:16:17;;;;;;;;;;;;;;;21.69;54.59;100198.66;5101490;28;751;-42
2021/08/02 02:18:52;;;;;;;;;;;;;;;21.27;55.17;100204.59;5101681;28;819;-41
2021/08/02 02:21:17;;;;;;;;;;;;;;;23.38;50.32;100207.63;5102195;28;911;-41
2021/08/02 02:23:43;;;;;;;;;;;;;;;24.37;47.88;100208.31;5102217;28;1974;-42
2021/08/02 02:26:08;;;;;;;;;;;;;;;21.48;54.85;100211.41;5119128;28;942;-42
2021/08/02 02:28:34;;;;;;;;;;;;;;;23.07;51.86;100206.53;5100077;28;823;-41
2021/08/02 02:30:59;;;;;;;;;;;;;;;24.29;47.33;100214.59;5101477;28;871;-43
2021/08/02 02:33:24;;;;;;;;;;;;;;;21.89;53.68;100209.97;5119853;28;739;-43
2021/08/02 02:35:50;;;;;;;;;;;;;;;21.99;55.59;100220.53;5101512;28;880;-42
2021/08/02 02:38:15;;;;;;;;;;;;;;;23.82;48.53;100215.25;5101141;28;900;-40
2021/08/02 02:40:43;;;;;;;;;;;;;;;24.42;49.97;100214.81;5101368;28;832;-42
2021/08/02 02:43:08;;;;;;;;;;;;;;;21.56;54.27;100217.78;5101170;28;950;-43
2021/08/02 02:45:34;;;;;;;;;;;;;;;22.63;53.70;100214.72;5119631;28;1905;-41
2021/08/02 02:47:59;;;;;;;;;;;;;;;24.02;47.54;100217.56;5118812;28;825;-43
2021/08/02 02:50:24;;;;;;;;;;;;;;;23.84;50.36;100221.31;5100605;28;893;-39
2021/08/02 02:52:50;;;;;;;;;;;;;;;23.60;52.58;100216.84;5101120;28;740;-38
2021/08/02 02:55:15;;;;;;;;;;;;;;;23.04;54.44;100222.97;5118924;28;1200;-38
2021/08/02 02:57:40;;;;;;;;;;;;;;;22.97;54.70;100220.94;5118667;28;1021;-39
2021/08/02 03:00:06;;;;;;;;;;;;;;;23.03;54.78;100224.78;5119396;28;781;-41
2021/08/02 03:02:32;;;;;;;;;;;;;;;23.17;56.53;100225.13;5119743;28;816;-37
2021/08/02 03:04:57;;;;;;;;;;;;;;;24.30;49.09;100222.47;5118878;28;1910;-38
2021/08/02 03:07:22;;;;;;;;;;;;;;;24.74;49.40;100228.22;5118694;28;852;-39
2021/08/02 03:09:47;;;;;;;;;;;;;;;25.14;50.04;100224.59;5119032;28;830;-40
2021/08/02 03:12:13;;;;;;;;;;;;;;;23.92;53.82;100220.41;5100076;28;954;-42
2021/08/02 03:14:38;;;;;;;;;;;;;;;23.21;54.52;100221.09;5119067;28;929;-43
2021/08/02 03:17:09;;;;;;;;;;;;;;;23.04;54.03;100218.41;5100451;28;815;-39
2021/08/02 03:19:35;;;;;;;;;;;;;;;23.00;54.62;100222.44;5118001;28;775;-39
2021/08/02 03:22:01;;;;;;;;;;;;;;;22.71;55.18;100227.28;5118775;28;814;-36
2021/08/02 03:24:34;;;;;;;;;;;;;;;23.17;54.83;100231.31;5118654;28;1969;-41
2021/08/02 03:27:28;;;;;;;;;;;;;;;23.71;56.13;100231.75;5110320;28;1005;-38
2021/08/02 03:29:54;;;;;;;;;;;;;;;24.72;53.18;100232.13;5084851;28;1372;-36
2021/08/02 03:32:20;;;;;;;;;;;;;;;23.69;55.43;100223.88;5097661;28;843;-37
2021/08/02 03:34:59;;;;;;;;;;;;;;;23.08;55.84;100224.28;5098327;28;743;-36
2021/08/02 03:37:24;;;;;;;;;;;;;;;22.92;55.69;100217.91;5080065;28;831;-36
2021/08/02 03:39:50;;;;;;;;;;;;;;;23.02;55.04;100223.13;5079456;28;812;-35
2021/08/02 03:42:15;;;;;;;;;;;;;;;22.97;55.55;100222.78;5090461;28;958;-35
2021/08/02 03:44:40;;;;;;;;;;;;;;;22.93;54.51;100230.31;5118493;28;1967;-38
2021/08/02 03:47:06;;;;;;;;;;;;;;;23.38;56.69;100231.78;5118095;28;787;-36
2021/08/02 03:49:31;;;;;;;;;;;;;;;24.55;50.94;100238.44;5118078;28;787;-37
2021/08/02 03:51:57;;;;;;;;;;;;;;;23.81;53.93;100236.91;5118054;28;846;-35
2021/08/02 03:54:22;;;;;;;;;;;;;;;23.00;56.07;100241.22;5112942;28;1155;-40
2021/08/02 03:56:47;;;;;;;;;;;;;;;22.92;56.48;100233.19;5099129;28;1143;-36
2021/08/02 03:59:13;;;;;;;;;;;;;;;23.46;57.11;100239.88;5098797;28;829;-33
2021/08/02 04:01:39;;;;;;;;;;;;;;;22.99;58.53;100237.69;5118404;28;770;-45
2021/08/02 04:04:04;;;;;;;;;;;;;;;22.66;58.96;100240.34;5117606;28;1901;-40
2021/08/02 04:06:29;;;;;;;;;;;;;;;23.11;57.54;100240.03;5117772;28;818;-40
2021/08/02 04:08:55;;;;;;;;;;;;;;;23.46;57.84;100240.72;5118034;28;763;-43
2021/08/02 04:11:20;;;;;;;;;;;;;;;23.32;58.18;100246.75;5117378;28;981;-37
2021/08/02 04:13:45;;;;;;;;;;;;;;;23.19;58.39;100242.72;5117819;28;751;-47
2021/08/02 04:16:11;;;;;;;;;;;;;;;23.35;59.74;100251.78;5117607;28;847;-42
2021/08/02 04:18:36;;;;;;;;;;;;;;;23.18;59.97;100242.88;5117072;28;850;-37
2021/08/02 04:21:01;;;;;;;;;;;;;;;23.00;59.32;100238.53;5117698;28;819;-38
2021/08/02 04:23:26;;;;;;;;;;;;;;;21.79;60.87;100239.53;5117545;28;1972;-43
2021/08/02 04:25:52;;;;;;;;;;;;;;;21.63;62.00;100233.09;5117613;28;774;-38
2021/08/02 04:28:17;;;;;;;;;;;;;;;21.65;62.33;100224.88;5116625;28;986;-47
2021/08/02 04:30:42;;;;;;;;;;;;;;;21.53;62.29;100227.00;5117147;28;754;-43
2021/08/02 04:33:08;;;;;;;;;;;;;;;21.77;62.62;100228.97;5117459;28;746;-38
2021/08/02 04:35:33;;;;;;;;;;;;;;;21.77;61.24;100226.28;5117736;28;834;-37
2021/08/02 04:37:58;;;;;;;;;;;;;;;21.59;62.55;100218.31;5117300;28;790;-40
2021/08/02 04:40:23;;;;;;;;;;;;;;;23.20;60.00;100219.41;5116899;28;858;-40
2021/08/02 04:42:49;;;;;;;;;;;;;;;24.03;57.58;100221.91;5116852;28;946;-39
2021/08/02 04:45:14;;;;;;;;;;;;;;;22.99;59.41;100221.59;5117271;28;1902;-40
2021/08/02 04:47:39;;;;;;;;;;;;;;;23.27;59.82;100217.75;5117016;28;803;-40
2021/08/02 04:50:05;;;;;;;;;;;;;;;24.36;58.02;100222.78;5116874;28;901;-40
2021/08/02 04:52:30;;;;;;;;;;;;;;;23.38;58.71;100221.91;5117429;28;740;-40
2021/08/02 04:54:56;;;;;;;;;;;;;;;24.14;57.83;100217.97;5100097;28;1157;-40
2021/08/02 04:57:22;;;;;;;;;;;;;;;23.27;58.09;100216.91;5108962;28;1026;-38
2021/08/02 04:59:47;;;;;;;;;;;;;;;23.31;59.51;100221.75;5117067;28;854;-40
2021/08/02 05:02:12;;;;;;;;;;;;;;;24.56;56.56;100215.91;5117040;28;818;-45
2021/08/02 05:04:37;;;;;;;;;;;;;;;24.49;56.38;100233.75;5117343;28;1906;-40
2021/08/02 05:07:03;;;;;;;;;;;;;;;24.56;56.12;100228.50;5116741;28;850;-40
2021/08/02 05:09:28;;;;;;;;;;;;;;;24.97;54.39;100223.88;5117482;28;692;-45
2021/08/02 05:11:53;;;;;;;;;;;;;;;24.65;54.24;100218.53;5121996;28;961;-44
2021/08/02 05:14:19;;;;;;;;;;;;;;;23.32;56.89;100218.03;5123303;28;850;-39
2021/08/02 05:16:44;;;;;;;;;;;;;;;23.36;57.71;100214.03;5123370;28;735;-43
2021/08/02 05:19:12;;;;;;;;;;;;;;;23.07;57.45;100209.22;5123672;28;767;-42
2021/08/02 05:21:37;;;;;;;;;;;;;;;22.98;56.84;100208.38;5123427;28;763;-37
2021/08/02 05:24:03;;;;;;;;;;;;;;;23.56;55.27;100207.47;5124031;28;1906;-44
2021/08/02 05:26:28;;;;;;;;;;;;;;;23.44;55.91;100204.31;5122930;28;1009;-43
2021/08/02 05:28:53;;;;;;;;;;;;;;;24.63;54.17;100213.34;5123149;28;756;-42
2021/08/02 05:31:19;;;;;;;;;;;;;;;25.06;51.88;100203.94;5123659;28;755;-40
2021/08/02 05:33:44;;;;;;;;;;;;;;;24.41;51.65;100202.41;5123659;28;774;-40
2021/08/02 05:36:09;;;;;;;;;;;;;;;24.75;52.99;100202.16;5123031;28;1174;-40
2021/08/02 05:38:35;;;;;;;;;;;;;;;24.88;51.09;100207.78;5123152;28;849;-41
2021/08/02 05:41:00;;;;;;;;;;;;;;;25.53;50.89;100199.28;5122984;28;1441;-39
2021/08/02 05:43:25;;;;;;;;;;;;;;;25.39;50.46;100200.94;5122964;28;1910;-40
2021/08/02 05:45:51;;;;;;;;;;;;;;;25.52;47.28;100197.63;5123259;28;791;-39
2021/08/02 05:48:16;;;;;;;;;;;;;;;24.63;49.05;100191.84;5123378;28;805;-37
2021/08/02 05:50:41;;;;;;;;;;;;;;;24.50;51.42;100197.81;5123192;28;814;-36
2021/08/02 05:53:07;;;;;;;;;;;;;;;25.35;47.34;100204.19;5121880;28;1146;-39
2021/08/02 05:55:32;;;;;;;;;;;;;;;24.95;47.36;100205.22;5102537;28;1270;-38
2021/08/02 05:57:57;;;;;;;;;;;;;;;25.09;45.94;100200.88;5119396;28;1017;-35
2021/08/02 06:00:23;;;;;;;;;;;;;;;25.06;46.18;100202.09;5123322;28;803;-35
2021/08/02 06:02:49;;;;;;;;;;;;;;;24.58;43.73;100202.28;5123298;28;767;-36
2021/08/02 06:05:15;;;;;;;;;;;;;;;25.35;46.24;100207.72;5123419;28;1913;-37
2021/08/02 06:07:43;;;;;;;;;;;;;;;24.97;46.71;100205.91;5123145;28;731;-35
2021/08/02 06:10:09;;;;;;;;;;;;;;;25.37;47.01;100213.75;5123081;28;806;-35
2021/08/02 06:12:34;;;;;;;;;;;;;;;23.99;47.25;100204.44;5122368;28;1033;-40
2021/08/02 06:15:00;;;;;;;;;;;;;;;24.80;45.69;100210.53;5123349;28;759;-36
2021/08/02 06:17:25;;;;;;;;;;;;;;;25.24;44.70;100205.47;5123121;28;818;-36
2021/08/02 06:19:50;;;;;;;;;;;;;;;24.77;44.13;100201.00;5122488;28;797;-38
2021/08/02 06:22:16;;;;;;;;;;;;;;;24.74;44.55;100198.63;5120255;28;884;-37
2021/08/02 06:24:42;;;;;;;;;;;;;;;24.57;46.74;100201.44;5115780;28;1909;-37
2021/08/02 06:27:07;;;;;;;;;;;;;;;23.80;44.57;100195.81;5118806;28;1083;-35
2021/08/02 06:29:33;;;;;;;;;;;;;;;24.26;49.85;100199.63;5119518;28;753;-42
2021/08/02 06:31:58;;;;;;;;;;;;;;;24.39;49.93;100196.34;5119420;28;741;-38
2021/08/02 06:34:23;;;;;;;;;;;;;;;23.52;56.35;100196.25;5119095;28;859;-36
2021/08/02 06:36:49;;;;;;;;;;;;;;;25.76;49.13;100194.81;5119211;28;755;-36
2021/08/02 06:39:14;;;;;;;;;;;;;;;22.02;60.56;100185.44;5118532;28;863;-36
2021/08/02 06:41:39;;;;;;;;;;;;;;;24.61;54.46;100190.34;5118494;28;946;-36
2021/08/02 06:44:05;;;;;;;;;;;;;;;24.35;54.40;100181.63;5119568;28;1977;-39
2021/08/02 06:46:30;;;;;;;;;;;;;;;21.86;62.84;100186.19;5100401;28;1127;-39
2021/08/02 06:48:55;;;;;;;;;;;;;;;24.82;55.26;100189.69;5100693;28;1105;-40
2021/08/02 06:51:21;;;;;;;;;;;;;;;24.07;56.96;100184.78;5098001;28;987;-38
2021/08/02 06:53:46;;;;;;;;;;;;;;;21.98;63.59;100198.31;5105084;28;1532;-37
2021/08/02 06:56:11;;;;;;;;;;;;;;;22.35;63.22;100190.03;5118584;28;1005;-38
2021/08/02 06:58:37;;;;;;;;;;;;;;;25.35;53.98;100196.94;5117764;28;831;-38
2021/08/02 07:01:02;;;;;;;;;;;;;;;22.90;60.66;100189.59;5118583;28;783;-37
2021/08/02 07:03:27;;;;;;;;;;;;;;;21.86;64.14;100188.88;5118417;28;1913;-39
2021/08/02 07:05:53;;;;;;;;;;;;;;;22.90;62.67;100177.03;5118812;28;813;-39
2021/08/02 07:08:19;;;;;;;;;;;;;;;25.62;53.42;100188.41;5118340;28;754;-40
2021/08/02 07:10:45;;;;;;;;;;;;;;;22.60;62.18;100176.66;5118623;28;807;-38
2021/08/02 07:13:10;;;;;;;;;;;;;;;21.81;64.30;100178.63;5117205;28;949;-37
2021/08/02 07:15:35;;;;;;;;;;;;;;;21.64;64.70;100177.69;5118160;28;791;-35
2021/08/02 07:18:01;;;;;;;;;;;;;;;24.51;57.61;100180.66;5117973;28;978;-39
2021/08/02 07:20:26;;;;;;;;;;;;;;;24.27;57.06;100178.97;5118411;28;766;-38
2021/08/02 07:22:52;;;;;;;;;;;;;;;22.03;64.37;100187.09;5118181;28;1155;-35
2021/08/02 07:25:17;;;;;;;;;;;;;;;23.54;62.86;100182.66;5118281;28;1960;-37
2021/08/02 07:27:43;;;;;;;;;;;;;;;25.96;53.48;100178.91;5104145;28;1017;-41
2021/08/02 07:30:09;;;;;;;;;;;;;;;27.00;50.34;100181.41;5105448;28;1284;-42
2021/08/02 07:32:34;;;;;;;;;;;;;;;27.46;49.08;100189.19;5107754;28;1415;-41
2021/08/02 07:34:59;;;;;;;;;;;;;;;27.69;48.77;100188.09;5105360;28;1226;-42
2021/08/02 07:37:25;;;;;;;;;;;;;;;27.79;50.50;100188.56;5097040;28;832;-43
2021/08/02 07:39:50;;;;;;;;;;;;;;;28.04;47.83;100189.91;5100447;28;1119;-41
2021/08/02 07:42:16;;;;;;;;;;;;;;;27.95;48.85;100181.97;5106784;28;1289;-44
2021/08/02 07:44:41;;;;;;;;;;;;;;;28.21;49.04;100190.38;5097579;28;1902;-43
2021/08/02 07:47:06;;;;;;;;;;;;;;;28.22;47.86;100195.56;5097986;28;767;-43
2021/08/02 07:49:32;;;;;;;;;;;;;;;28.14;49.07;100194.91;5096892;28;730;-41
2021/08/02 07:51:57;;;;;;;;;;;;;;;28.44;47.27;100187.31;5096473;28;831;-43
2021/08/02 07:54:22;;;;;;;;;;;;;;;28.50;47.15;100192.94;5109326;28;1135;-42
2021/08/02 07:56:47;;;;;;;;;;;;;;;28.58;48.37;100198.97;5097826;28;1472;-42
2021/08/02 07:59:13;;;;;;;;;;;;;;;28.59;47.23;100197.13;5117952;28;726;-43
2021/08/02 08:01:38;;;;;;;;;;;;;;;28.44;48.91;100197.31;5117033;28;776;-42
2021/08/02 08:04:03;;;;;;;;;;;;;;;24.81;59.36;100198.75;5116840;28;1973;-44
2021/08/02 08:06:29;;;;;;;;;;;;;;;27.41;51.68;100197.88;5115141;28;1155;-42
2021/08/02 08:08:54;;;;;;;;;;;;;;;24.56;60.01;100196.25;5113734;28;875;-43
2021/08/02 08:11:19;;;;;;;;;;;;;;;27.05;53.87;100186.22;5109753;28;1256;-43
2021/08/02 08:13:45;;;;;;;;;;;;;;;25.69;57.53;100192.06;5117430;28;763;-43
2021/08/02 08:16:12;;;;;;;;;;;;;;;25.90;59.64;100190.44;5116817;28;799;-42
2021/08/02 08:18:37;;;;;;;;;;;;;;;27.83;51.68;100184.41;5116396;28;823;-42
2021/08/02 08:21:03;;;;;;;;;;;;;;;24.25;62.74;100181.84;5116634;28;1031;-42
2021/08/02 08:23:30;;;;;;;;;;;;;;;27.04;54.90;100187.28;5116699;28;744;-42
2021/08/02 08:25:56;;;;;;;;;;;;;;;25.04;60.40;100174.53;5117010;28;748;-42
2021/08/02 08:28:21;;;;;;;;;;;;;;;25.98;60.19;100174.16;5115771;28;1001;-41
2021/08/02 08:30:47;;;;;;;;;;;;;;;27.68;52.77;100165.63;5115189;28;1094;-42
2021/08/02 08:33:12;;;;;;;;;;;;;;;24.25;62.79;100167.56;5104942;28;1269;-41
2021/08/02 08:35:37;;;;;;;;;;;;;;;26.87;55.68;100159.69;5105174;28;1403;-41
2021/08/02 08:38:03;;;;;;;;;;;;;;;26.00;57.25;100164.03;5096144;28;824;-40
2021/08/02 08:40:29;;;;;;;;;;;;;;;24.85;62.73;100161.56;5096426;28;863;-40
2021/08/02 08:42:54;;;;;;;;;;;;;;;27.45;53.89;100157.81;5092958;28;943;-42
2021/08/02 08:45:19;;;;;;;;;;;;;;;24.68;61.45;100157.16;5115779;28;1967;-43
2021/08/02 08:47:45;;;;;;;;;;;;;;;26.34;58.22;100158.19;5116321;28;831;-43
2021/08/02 08:50:11;;;;;;;;;;;;;;;27.68;53.53;100157.53;5116177;28;771;-43
2021/08/02 08:52:36;;;;;;;;;;;;;;;24.29;62.85;100144.72;5116918;28;825;-43
2021/08/02 08:55:05;;;;;;;;;;;;;;;27.21;55.22;100149.16;5098559;28;1043;-43
2021/08/02 08:57:31;;;;;;;;;;;;;;;25.07;60.64;100147.25;5108831;28;955;-42
2021/08/02 08:59:56;;;;;;;;;;;;;;;25.55;61.81;100145.22;5116507;28;778;-42
2021/08/02 09:02:25;;;;;;;;;;;;;;;27.75;53.56;100147.59;5116567;28;779;-42
2021/08/02 09:04:50;;;;;;;;;;;;;;;24.30;63.25;100146.38;5115948;28;1979;-42
2021/08/02 09:07:16;;;;;;;;;;;;;;;26.53;58.00;100149.47;5116146;28;941;-41
2021/08/02 09:09:41;;;;;;;;;;;;;;;27.29;55.18;100150.88;5116196;28;771;-42
2021/08/02 09:12:07;;;;;;;;;;;;;;;24.02;64.45;100144.16;5115896;28;998;-43
2021/08/02 09:14:33;;;;;;;;;;;;;;;26.92;56.65;100148.31;5116249;28;976;-43
2021/08/02 09:17:00;;;;;;;;;;;;;;;25.71;59.92;100136.13;5116440;28;732;-43
2021/08/02 09:19:26;;;;;;;;;;;;;;;24.43;64.29;100149.31;5116128;28;744;-40
2021/08/02 09:21:53;;;;;;;;;;;;;;;27.35;55.74;100145.50;5116648;28;758;-40
2021/08/02 09:24:28;;;;;;;;;;;;;;;24.86;62.58;100139.84;5115700;28;1968;-42
2021/08/02 09:26:53;;;;;;;;;;;;;;;25.53;63.67;100144.56;5116067;28;1005;-43
2021/08/02 09:29:25;;;;;;;;;;;;;;;27.75;54.59;100139.50;5116182;28;819;-43
2021/08/02 09:31:51;;;;;;;;;;;;;;;24.48;64.27;100137.16;5116149;28;798;-44
2021/08/02 09:34:16;;;;;;;;;;;;;;;25.31;64.40;100133.72;5097554;28;742;-42
2021/08/02 09:36:41;;;;;;;;;;;;;;;27.60;55.87;100136.91;5102306;28;1141;-36
2021/08/02 09:39:10;;;;;;;;;;;;;;;24.56;63.70;100137.94;5095637;28;766;-35
2021/08/02 09:41:36;;;;;;;;;;;;;;;25.12;64.18;100133.25;5100535;28;999;-38
2021/08/02 09:44:01;;;;;;;;;;;;;;;27.69;56.08;100136.75;5115989;28;1909;-40
2021/08/02 09:46:26;;;;;;;;;;;;;;;24.48;62.70;100132.63;5115976;28;802;-40
2021/08/02 09:48:52;;;;;;;;;;;;;;;26.39;60.20;100131.50;5115814;28;820;-35
2021/08/02 09:51:20;;;;;;;;;;;;;;;28.04;54.95;100133.13;5097175;28;805;-35
2021/08/02 09:53:46;;;;;;;;;;;;;;;24.18;65.21;100132.50;5115790;28;1246;-40
2021/08/02 09:56:16;;;;;;;;;;;;;;;25.87;63.09;100135.09;5114966;28;910;-34
2021/08/02 09:58:41;;;;;;;;;;;;;;;27.98;55.65;100126.66;5108781;28;926;-40
2021/08/02 10:01:07;;;;;;;;;;;;;;;27.40;56.10;100134.09;5104793;28;1154;-37
2021/08/02 10:03:34;;;;;;;;;;;;;;;27.37;56.26;100127.25;5109185;28;1364;-40
2021/08/02 10:06:00;;;;;;;;;;;;;;;27.45;55.83;100128.09;5118803;28;1323;-40
2021/08/02 10:08:25;;;;;;;;;;;;;;;27.32;55.65;100126.16;5100989;28;990;-41
2021/08/02 10:10:50;;;;;;;;;;;;;;;27.32;54.73;100118.91;5099120;28;1181;-41
2021/08/02 10:13:22;;;;;;;;;;;;;;;27.23;53.92;100118.22;5089702;28;1245;-38
2021/08/02 10:15:54;;;;;;;;;;;;;;;28.30;48.99;100118.81;5107291;28;1218;-37
2021/08/02 10:18:19;;;;;;;;;;;;;;;27.67;50.34;100109.91;5088111;28;1298;-40
2021/08/02 10:20:45;;;;;;;;;;;;;;;27.08;51.26;100109.41;5099122;28;767;-40
2021/08/02 10:23:10;;;;;;;;;;;;;;;26.97;50.69;100106.22;5080205;28;1222;-40
2021/08/02 10:25:35;;;;;;;;;;;;;;;28.01;46.41;100103.78;5080412;28;1894;-42
2021/08/02 10:28:07;;;;;;;;;;;;;;;27.72;48.94;100103.91;5115531;28;970;-39
2021/08/02 10:30:32;;;;;;;;;;;;;;;27.16;50.29;100094.94;5119241;28;894;-43
2021/08/02 10:32:58;;;;;;;;;;;;;;;27.00;50.67;100102.28;5119080;28;747;-39
2021/08/02 10:35:49;;;;;;;;;;;;;;;26.63;53.30;100100.56;5119368;28;752;-41
2021/08/02 10:38:15;;;;;;;;;;;;;;;28.30;46.21;100108.00;5115988;28;1749;-41
2021/08/02 10:40:44;;;;;;;;;;;;;;;25.85;56.40;100103.94;5115854;28;1135;-44
2021/08/02 10:43:09;;;;;;;;;;;;;;;27.61;46.24;100108.84;5116155;28;974;-41
2021/08/02 10:45:34;;;;;;;;;;;;;;;24.43;56.98;100108.13;5118900;28;1901;-44
2021/08/02 10:48:00;;;;;;;;;;;;;;;27.37;48.28;100113.75;5118979;28;775;-42
2021/08/02 10:50:26;;;;;;;;;;;;;;;25.16;55.60;100118.41;5118646;28;711;-42
2021/08/02 10:52:52;;;;;;;;;;;;;;;25.98;55.50;100114.88;5118805;28;802;-41
2021/08/02 10:55:17;;;;;;;;;;;;;;;27.85;46.79;100111.22;5077216;28;1244;-36
2021/08/02 10:57:42;;;;;;;;;;;;;;;24.26;57.96;100119.00;5092374;28;989;-38
2021/08/02 11:00:28;;;;;;;;;;;;;;;26.93;50.54;100102.22;5098464;28;768;-40
2021/08/02 11:02:57;;;;;;;;;;;;;;;25.48;54.41;100114.66;5096343;28;1481;-44
2021/08/02 11:05:22;;;;;;;;;;;;;;;25.64;56.35;100102.91;5097910;28;1914;-43
2021/08/02 11:07:47;;;;;;;;;;;;;;;27.83;47.63;100114.13;5098272;28;825;-42
2021/08/02 11:10:16;;;;;;;;;;;;;;;24.49;57.36;100107.41;5097184;28;1074;-40
2021/08/02 11:12:42;;;;;;;;;;;;;;;26.33;53.63;100095.34;5090855;28;1225;-41
2021/08/02 11:15:08;;;;;;;;;;;;;;;28.06;47.20;100109.44;5077869;28;786;-45
2021/08/02 11:17:33;;;;;;;;;;;;;;;24.07;58.32;100094.25;5075447;28;1275;-45
2021/08/02 11:19:59;;;;;;;;;;;;;;;27.06;50.27;100103.41;5076222;28;883;-42
2021/08/02 11:22:25;;;;;;;;;;;;;;;25.72;53.74;100096.56;5078014;28;922;-38
2021/08/02 11:24:53;;;;;;;;;;;;;;;25.19;56.84;100103.75;5077199;28;1969;-44
2021/08/02 11:27:19;;;;;;;;;;;;;;;27.67;48.18;100101.81;5087923;28;957;-43
2021/08/02 11:29:48;;;;;;;;;;;;;;;24.65;56.48;100098.38;5097924;28;755;-42
2021/08/02 11:32:13;;;;;;;;;;;;;;;26.74;51.53;100101.06;5098026;28;786;-45
2021/08/02 11:34:43;;;;;;;;;;;;;;;27.05;49.96;100093.59;5097529;28;815;-41
2021/08/02 11:37:12;;;;;;;;;;;;;;;24.46;57.52;100100.53;5098100;28;755;-42
2021/08/02 11:39:38;;;;;;;;;;;;;;;27.47;48.02;100099.03;5097873;28;943;-42
2021/08/02 11:42:07;;;;;;;;;;;;;;;25.06;54.74;100094.47;5096244;28;1055;-39
2021/08/02 11:44:32;;;;;;;;;;;;;;;26.37;52.59;100091.25;5095812;28;1962;-41
2021/08/02 11:46:58;;;;;;;;;;;;;;;28.12;45.75;100097.78;5097716;28;1194;-44
2021/08/02 11:49:24;;;;;;;;;;;;;;;24.14;57.40;100101.59;5097638;28;1232;-40
2021/08/02 11:51:49;;;;;;;;;;;;;;;27.22;47.25;100096.81;5097591;28;1253;-41
2021/08/02 11:54:18;;;;;;;;;;;;;;;25.56;52.48;100098.41;5092849;28;1272;-42
2021/08/02 11:56:43;;;;;;;;;;;;;;;26.33;52.61;100089.94;5103414;28;958;-43
2021/08/02 11:59:16;;;;;;;;;;;;;;;28.05;46.14;100088.81;5117850;28;826;-41
2021/08/02 12:01:46;;;;;;;;;;;;;;;24.24;56.82;100091.47;5117734;28;902;-43
2021/08/02 12:04:11;;;;;;;;;;;;;;;27.24;49.08;100092.88;5117760;28;1906;-43
2021/08/02 12:06:45;;;;;;;;;;;;;;;25.61;53.37;100090.59;5098633;28;1028;-36
2021/08/02 12:09:11;;;;;;;;;;;;;;;25.72;55.95;100089.31;5117292;28;914;-35
2021/08/02 12:11:42;;;;;;;;;;;;;;;27.84;47.29;100090.66;5116512;28;1098;-38
2021/08/02 12:14:08;;;;;;;;;;;;;;;24.58;56.60;100092.88;5117645;28;838;-31
2021/08/02 12:16:33;;;;;;;;;;;;;;;26.84;51.17;100087.22;5117343;28;865;-37
2021/08/02 12:19:05;;;;;;;;;;;;;;;27.25;48.97;100089.16;5117348;28;834;-37
2021/08/02 12:21:32;;;;;;;;;;;;;;;25.04;56.25;100084.91;5116182;28;1040;-38
2021/08/02 12:24:08;;;;;;;;;;;;;;;27.67;48.65;100087.44;5117469;28;1898;-38
2021/08/02 12:26:34;;;;;;;;;;;;;;;24.92;55.52;100077.28;5116350;28;962;-37
2021/08/02 12:28:59;;;;;;;;;;;;;;;26.47;52.91;100090.06;5117449;28;859;-36
2021/08/02 12:31:26;;;;;;;;;;;;;;;28.27;47.11;100097.59;5099206;28;1090;-36
2021/08/02 12:33:51;;;;;;;;;;;;;;;24.28;58.15;100090.09;5116783;28;833;-35
2021/08/02 12:36:18;;;;;;;;;;;;;;;27.18;50.77;100079.34;5117384;28;820;-37
2021/08/02 12:38:47;;;;;;;;;;;;;;;26.17;52.82;100082.94;5116730;28;882;-37
2021/08/02 12:41:12;;;;;;;;;;;;;;;25.16;57.60;100077.19;5116810;28;962;-37
2021/08/02 12:43:37;;;;;;;;;;;;;;;27.72;49.61;100076.91;5117020;28;815;-36
2021/08/02 12:46:02;;;;;;;;;;;;;;;24.94;56.56;100074.44;5116745;28;1905;-37
2021/08/02 12:48:28;;;;;;;;;;;;;;;25.98;56.01;100071.75;5116733;28;862;-36